Terminal Aerodrome Forecast
Issued by NWS

Home | Current Version | Previous Version | Text Only | Print | Product List | Glossary On
Versions: 1 2 3 4 5 6 7 8 9 10 11 12 13 14 15 16 17 18 19 20 21 22 23 24 25 26 27 28 29 30
000
FTUS45 KGJT 040524
TAFMTJ
TAF
KMTJ 040524Z 0406/0506 13007KT P6SM FEW200
     FM041600 33008KT P6SM SCT100 BKN250
     FM042000 33010KT P6SM VCTS SCT080CB BKN250
     FM050000 15010KT P6SM OVC100=

USA.gov is the U.S. government's official web portal to all federal, state and local government web resources and services.